sensor_id;sensor_type;location;lat;lon;timestamp;P1;durP1;ratioP1;P2;durP2;ratioP2
16246;SDS011;8231;50.866;7.944;2022-07-23T00:01:02;11.43;;;9.30;;
16246;SDS011;8231;50.866;7.944;2022-07-23T00:03:31;10.13;;;8.93;;
16246;SDS011;8231;50.866;7.944;2022-07-23T00:06:00;16.10;;;9.55;;
16246;SDS011;8231;50.866;7.944;2022-07-23T00:08:28;10.60;;;9.07;;
16246;SDS011;8231;50.866;7.944;2022-07-23T00:10:56;11.60;;;10.15;;
16246;SDS011;8231;50.866;7.944;2022-07-23T00:13:26;14.20;;;10.30;;
16246;SDS011;8231;50.866;7.944;2022-07-23T00:15:54;11.43;;;9.90;;
16246;SDS011;8231;50.866;7.944;2022-07-23T00:18:22;15.82;;;9.85;;
16246;SDS011;8231;50.866;7.944;2022-07-23T00:20:51;13.02;;;9.10;;
16246;SDS011;8231;50.866;7.944;2022-07-23T00:23:20;13.68;;;10.35;;
16246;SDS011;8231;50.866;7.944;2022-07-23T00:25:48;12.98;;;9.60;;
16246;SDS011;8231;50.866;7.944;2022-07-23T00:28:16;10.10;;;8.95;;
16246;SDS011;8231;50.866;7.944;2022-07-23T00:30:46;10.95;;;9.68;;
16246;SDS011;8231;50.866;7.944;2022-07-23T00:33:14;13.20;;;9.55;;
16246;SDS011;8231;50.866;7.944;2022-07-23T00:35:42;12.63;;;10.00;;
16246;SDS011;8231;50.866;7.944;2022-07-23T00:38:11;14.43;;;10.60;;
16246;SDS011;8231;50.866;7.944;2022-07-23T00:40:39;11.05;;;9.95;;
16246;SDS011;8231;50.866;7.944;2022-07-23T00:43:07;13.63;;;10.77;;
16246;SDS011;8231;50.866;7.944;2022-07-23T00:45:36;13.93;;;10.85;;
16246;SDS011;8231;50.866;7.944;2022-07-23T00:48:06;14.85;;;10.57;;
16246;SDS011;8231;50.866;7.944;2022-07-23T00:50:34;12.60;;;10.43;;
16246;SDS011;8231;50.866;7.944;2022-07-23T00:53:03;14.52;;;10.52;;
16246;SDS011;8231;50.866;7.944;2022-07-23T00:55:32;15.65;;;11.23;;
16246;SDS011;8231;50.866;7.944;2022-07-23T00:58:01;16.40;;;10.80;;
16246;SDS011;8231;50.866;7.944;2022-07-23T01:00:29;12.05;;;9.88;;
16246;SDS011;8231;50.866;7.944;2022-07-23T01:02:57;12.77;;;11.40;;
16246;SDS011;8231;50.866;7.944;2022-07-23T01:05:27;13.18;;;10.02;;
16246;SDS011;8231;50.866;7.944;2022-07-23T01:07:55;14.13;;;10.88;;
16246;SDS011;8231;50.866;7.944;2022-07-23T01:10:24;11.98;;;10.70;;
16246;SDS011;8231;50.866;7.944;2022-07-23T01:12:58;13.70;;;10.68;;
16246;SDS011;8231;50.866;7.944;2022-07-23T01:15:27;13.32;;;10.80;;
16246;SDS011;8231;50.866;7.944;2022-07-23T01:17:56;12.40;;;11.13;;
16246;SDS011;8231;50.866;7.944;2022-07-23T01:20:27;13.30;;;10.02;;
16246;SDS011;8231;50.866;7.944;2022-07-23T01:22:57;14.23;;;11.40;;
16246;SDS011;8231;50.866;7.944;2022-07-23T01:25:25;13.57;;;11.10;;
16246;SDS011;8231;50.866;7.944;2022-07-23T01:27:57;15.80;;;12.75;;
16246;SDS011;8231;50.866;7.944;2022-07-23T01:30:25;12.80;;;11.07;;
16246;SDS011;8231;50.866;7.944;2022-07-23T01:32:55;16.48;;;11.50;;
16246;SDS011;8231;50.866;7.944;2022-07-23T01:35:23;15.63;;;12.25;;
16246;SDS011;8231;50.866;7.944;2022-07-23T01:37:57;18.10;;;12.32;;
16246;SDS011;8231;50.866;7.944;2022-07-23T01:40:25;13.43;;;11.10;;
16246;SDS011;8231;50.866;7.944;2022-07-23T01:42:55;16.58;;;12.93;;
16246;SDS011;8231;50.866;7.944;2022-07-23T01:45:23;16.73;;;12.88;;
16246;SDS011;8231;50.866;7.944;2022-07-23T01:47:52;16.98;;;12.65;;
16246;SDS011;8231;50.866;7.944;2022-07-23T01:50:20;15.63;;;13.02;;
16246;SDS011;8231;50.866;7.944;2022-07-23T01:53:08;16.77;;;12.00;;
16246;SDS011;8231;50.866;7.944;2022-07-23T01:55:36;20.10;;;11.82;;
16246;SDS011;8231;50.866;7.944;2022-07-23T01:58:05;15.38;;;12.90;;
16246;SDS011;8231;50.866;7.944;2022-07-23T02:00:33;19.90;;;12.52;;
16246;SDS011;8231;50.866;7.944;2022-07-23T02:03:02;17.75;;;13.40;;
16246;SDS011;8231;50.866;7.944;2022-07-23T02:05:31;16.83;;;12.20;;
16246;SDS011;8231;50.866;7.944;2022-07-23T02:07:59;14.00;;;11.88;;
16246;SDS011;8231;50.866;7.944;2022-07-23T02:10:33;21.75;;;13.15;;
16246;SDS011;8231;50.866;7.944;2022-07-23T02:13:02;14.27;;;11.60;;
16246;SDS011;8231;50.866;7.944;2022-07-23T02:15:31;14.85;;;12.35;;
16246;SDS011;8231;50.866;7.944;2022-07-23T02:17:59;19.92;;;11.77;;
16246;SDS011;8231;50.866;7.944;2022-07-23T02:20:30;15.45;;;12.35;;
16246;SDS011;8231;50.866;7.944;2022-07-23T02:22:58;14.75;;;11.73;;
16246;SDS011;8231;50.866;7.944;2022-07-23T02:25:27;16.05;;;12.32;;
16246;SDS011;8231;50.866;7.944;2022-07-23T02:28:02;14.43;;;12.45;;
16246;SDS011;8231;50.866;7.944;2022-07-23T02:30:30;15.85;;;11.93;;
16246;SDS011;8231;50.866;7.944;2022-07-23T02:32:59;13.85;;;11.57;;
16246;SDS011;8231;50.866;7.944;2022-07-23T02:35:28;15.38;;;11.35;;
16246;SDS011;8231;50.866;7.944;2022-07-23T02:37:59;17.15;;;11.00;;
16246;SDS011;8231;50.866;7.944;2022-07-23T02:40:29;13.77;;;10.80;;
16246;SDS011;8231;50.866;7.944;2022-07-23T02:42:57;12.43;;;11.13;;
16246;SDS011;8231;50.866;7.944;2022-07-23T02:45:27;14.35;;;11.13;;
16246;SDS011;8231;50.866;7.944;2022-07-23T02:47:55;12.27;;;10.95;;
16246;SDS011;8231;50.866;7.944;2022-07-23T02:50:23;13.65;;;10.38;;
16246;SDS011;8231;50.866;7.944;2022-07-23T02:52:55;12.00;;;10.35;;
16246;SDS011;8231;50.866;7.944;2022-07-23T02:55:23;17.05;;;8.75;;
16246;SDS011;8231;50.866;7.944;2022-07-23T02:57:53;12.88;;;9.63;;
16246;SDS011;8231;50.866;7.944;2022-07-23T03:00:22;13.35;;;8.98;;
16246;SDS011;8231;50.866;7.944;2022-07-23T03:02:52;16.52;;;9.95;;
16246;SDS011;8231;50.866;7.944;2022-07-23T03:05:20;14.82;;;9.15;;
16246;SDS011;8231;50.866;7.944;2022-07-23T03:07:48;13.68;;;9.85;;
16246;SDS011;8231;50.866;7.944;2022-07-23T03:10:16;11.65;;;9.60;;
16246;SDS011;8231;50.866;7.944;2022-07-23T03:12:45;15.52;;;10.63;;
16246;SDS011;8231;50.866;7.944;2022-07-23T03:15:13;10.93;;;8.77;;
16246;SDS011;8231;50.866;7.944;2022-07-23T03:17:41;14.02;;;9.20;;
16246;SDS011;8231;50.866;7.944;2022-07-23T03:20:10;12.77;;;9.30;;
16246;SDS011;8231;50.866;7.944;2022-07-23T03:22:39;14.35;;;9.55;;
16246;SDS011;8231;50.866;7.944;2022-07-23T03:25:08;14.43;;;10.05;;
16246;SDS011;8231;50.866;7.944;2022-07-23T03:27:36;11.30;;;10.02;;
16246;SDS011;8231;50.866;7.944;2022-07-23T03:30:05;11.90;;;8.82;;
16246;SDS011;8231;50.866;7.944;2022-07-23T03:32:34;9.93;;;8.68;;
16246;SDS011;8231;50.866;7.944;2022-07-23T03:35:02;12.25;;;9.80;;
16246;SDS011;8231;50.866;7.944;2022-07-23T03:37:35;20.80;;;8.25;;
16246;SDS011;8231;50.866;7.944;2022-07-23T03:40:04;9.68;;;7.70;;
16246;SDS011;8231;50.866;7.944;2022-07-23T03:42:33;13.05;;;8.75;;
16246;SDS011;8231;50.866;7.944;2022-07-23T03:45:04;10.23;;;8.43;;
16246;SDS011;8231;50.866;7.944;2022-07-23T03:47:33;17.10;;;8.63;;
16246;SDS011;8231;50.866;7.944;2022-07-23T03:50:01;8.30;;;7.25;;
16246;SDS011;8231;50.866;7.944;2022-07-23T03:52:31;11.43;;;8.35;;
16246;SDS011;8231;50.866;7.944;2022-07-23T03:55:00;11.35;;;8.23;;
16246;SDS011;8231;50.866;7.944;2022-07-23T03:57:29;11.43;;;8.02;;
16246;SDS011;8231;50.866;7.944;2022-07-23T03:59:57;11.20;;;9.95;;
16246;SDS011;8231;50.866;7.944;2022-07-23T04:02:25;10.65;;;9.65;;
16246;SDS011;8231;50.866;7.944;2022-07-23T04:04:54;11.25;;;8.13;;
16246;SDS011;8231;50.866;7.944;2022-07-23T04:07:23;11.07;;;8.05;;
16246;SDS011;8231;50.866;7.944;2022-07-23T04:09:52;10.38;;;6.82;;
16246;SDS011;8231;50.866;7.944;2022-07-23T04:12:21;16.05;;;7.05;;
16246;SDS011;8231;50.866;7.944;2022-07-23T04:14:51;10.00;;;6.97;;
16246;SDS011;8231;50.866;7.944;2022-07-23T04:17:20;9.50;;;6.85;;
16246;SDS011;8231;50.866;7.944;2022-07-23T04:19:48;10.27;;;7.13;;
16246;SDS011;8231;50.866;7.944;2022-07-23T04:22:21;9.57;;;8.25;;
16246;SDS011;8231;50.866;7.944;2022-07-23T04:24:49;10.82;;;8.05;;
16246;SDS011;8231;50.866;7.944;2022-07-23T04:27:18;9.13;;;7.95;;
16246;SDS011;8231;50.866;7.944;2022-07-23T04:29:48;12.77;;;8.25;;
16246;SDS011;8231;50.866;7.944;2022-07-23T04:32:17;7.60;;;6.18;;
16246;SDS011;8231;50.866;7.944;2022-07-23T04:34:45;12.15;;;7.35;;
16246;SDS011;8231;50.866;7.944;2022-07-23T04:37:14;10.57;;;9.15;;
16246;SDS011;8231;50.866;7.944;2022-07-23T04:39:42;10.50;;;6.97;;
16246;SDS011;8231;50.866;7.944;2022-07-23T04:42:11;10.07;;;7.90;;
16246;SDS011;8231;50.866;7.944;2022-07-23T04:44:40;10.13;;;7.75;;
16246;SDS011;8231;50.866;7.944;2022-07-23T04:47:10;7.55;;;6.38;;
16246;SDS011;8231;50.866;7.944;2022-07-23T04:49:41;8.90;;;6.80;;
16246;SDS011;8231;50.866;7.944;2022-07-23T04:52:09;10.60;;;8.77;;
16246;SDS011;8231;50.866;7.944;2022-07-23T04:54:37;9.57;;;8.50;;
16246;SDS011;8231;50.866;7.944;2022-07-23T04:57:05;11.95;;;7.68;;
16246;SDS011;8231;50.866;7.944;2022-07-23T04:59:34;8.43;;;7.22;;
16246;SDS011;8231;50.866;7.944;2022-07-23T05:02:03;11.13;;;7.85;;
16246;SDS011;8231;50.866;7.944;2022-07-23T05:04:33;10.30;;;7.68;;
16246;SDS011;8231;50.866;7.944;2022-07-23T05:07:02;8.38;;;6.95;;
16246;SDS011;8231;50.866;7.944;2022-07-23T05:09:31;12.50;;;8.27;;
16246;SDS011;8231;50.866;7.944;2022-07-23T05:12:00;8.55;;;6.78;;
16246;SDS011;8231;50.866;7.944;2022-07-23T05:14:30;9.10;;;7.95;;
16246;SDS011;8231;50.866;7.944;2022-07-23T05:17:00;8.70;;;7.35;;
16246;SDS011;8231;50.866;7.944;2022-07-23T05:19:30;10.15;;;6.25;;
16246;SDS011;8231;50.866;7.944;2022-07-23T05:21:59;8.73;;;7.07;;
16246;SDS011;8231;50.866;7.944;2022-07-23T05:24:27;8.63;;;6.82;;
16246;SDS011;8231;50.866;7.944;2022-07-23T05:26:56;7.68;;;6.95;;
16246;SDS011;8231;50.866;7.944;2022-07-23T05:29:25;9.60;;;7.47;;
16246;SDS011;8231;50.866;7.944;2022-07-23T05:31:54;8.18;;;7.47;;
16246;SDS011;8231;50.866;7.944;2022-07-23T05:34:22;7.75;;;7.03;;
16246;SDS011;8231;50.866;7.944;2022-07-23T05:36:50;8.27;;;7.30;;
16246;SDS011;8231;50.866;7.944;2022-07-23T05:39:20;8.50;;;7.60;;
16246;SDS011;8231;50.866;7.944;2022-07-23T05:41:49;7.72;;;7.05;;
16246;SDS011;8231;50.866;7.944;2022-07-23T05:44:17;8.88;;;7.55;;
16246;SDS011;8231;50.866;7.944;2022-07-23T05:46:45;9.27;;;7.20;;
16246;SDS011;8231;50.866;7.944;2022-07-23T05:49:18;8.27;;;7.47;;
16246;SDS011;8231;50.866;7.944;2022-07-23T05:52:07;8.05;;;7.28;;
16246;SDS011;8231;50.866;7.944;2022-07-23T05:55:07;8.07;;;7.22;;
16246;SDS011;8231;50.866;7.944;2022-07-23T05:57:36;9.38;;;8.32;;
16246;SDS011;8231;50.866;7.944;2022-07-23T06:00:06;10.10;;;8.60;;
16246;SDS011;8231;50.866;7.944;2022-07-23T06:02:41;9.00;;;8.13;;
16246;SDS011;8231;50.866;7.944;2022-07-23T06:05:11;8.60;;;7.80;;
16246;SDS011;8231;50.866;7.944;2022-07-23T06:07:39;8.57;;;7.75;;
16246;SDS011;8231;50.866;7.944;2022-07-23T06:10:09;8.65;;;7.82;;
16246;SDS011;8231;50.866;7.944;2022-07-23T06:12:37;9.27;;;7.78;;
16246;SDS011;8231;50.866;7.944;2022-07-23T06:15:06;8.00;;;7.30;;
16246;SDS011;8231;50.866;7.944;2022-07-23T06:17:37;8.00;;;7.28;;
16246;SDS011;8231;50.866;7.944;2022-07-23T06:20:07;8.98;;;8.05;;
16246;SDS011;8231;50.866;7.944;2022-07-23T06:22:38;9.02;;;7.95;;
16246;SDS011;8231;50.866;7.944;2022-07-23T06:25:07;9.18;;;8.23;;
16246;SDS011;8231;50.866;7.944;2022-07-23T06:27:44;9.43;;;8.52;;
16246;SDS011;8231;50.866;7.944;2022-07-23T06:30:12;8.07;;;7.38;;
16246;SDS011;8231;50.866;7.944;2022-07-23T06:32:44;8.00;;;7.22;;
16246;SDS011;8231;50.866;7.944;2022-07-23T06:35:13;8.73;;;7.88;;
16246;SDS011;8231;50.866;7.944;2022-07-23T06:37:41;8.48;;;7.70;;
16246;SDS011;8231;50.866;7.944;2022-07-23T06:40:12;8.65;;;7.95;;
16246;SDS011;8231;50.866;7.944;2022-07-23T06:42:40;10.32;;;9.02;;
16246;SDS011;8231;50.866;7.944;2022-07-23T06:45:14;9.75;;;8.85;;
16246;SDS011;8231;50.866;7.944;2022-07-23T06:47:43;9.23;;;8.32;;
16246;SDS011;8231;50.866;7.944;2022-07-23T06:50:11;9.10;;;8.20;;
16246;SDS011;8231;50.866;7.944;2022-07-23T06:52:41;9.50;;;7.53;;
16246;SDS011;8231;50.866;7.944;2022-07-23T06:55:09;9.25;;;8.05;;
16246;SDS011;8231;50.866;7.944;2022-07-23T06:57:40;9.25;;;8.45;;
16246;SDS011;8231;50.866;7.944;2022-07-23T07:00:09;8.43;;;7.70;;
16246;SDS011;8231;50.866;7.944;2022-07-23T07:02:38;9.02;;;7.90;;
16246;SDS011;8231;50.866;7.944;2022-07-23T07:05:06;7.95;;;7.18;;
16246;SDS011;8231;50.866;7.944;2022-07-23T07:07:34;7.53;;;6.85;;
16246;SDS011;8231;50.866;7.944;2022-07-23T07:10:03;8.88;;;8.05;;
16246;SDS011;8231;50.866;7.944;2022-07-23T07:12:39;8.00;;;7.30;;
16246;SDS011;8231;50.866;7.944;2022-07-23T07:15:07;8.75;;;7.95;;
16246;SDS011;8231;50.866;7.944;2022-07-23T07:17:35;8.15;;;7.47;;
16246;SDS011;8231;50.866;7.944;2022-07-23T07:20:04;6.65;;;6.00;;
16246;SDS011;8231;50.866;7.944;2022-07-23T07:22:33;5.90;;;5.38;;
16246;SDS011;8231;50.866;7.944;2022-07-23T07:25:01;5.85;;;5.18;;
16246;SDS011;8231;50.866;7.944;2022-07-23T07:27:29;6.90;;;4.75;;
16246;SDS011;8231;50.866;7.944;2022-07-23T07:29:58;5.10;;;4.70;;
16246;SDS011;8231;50.866;7.944;2022-07-23T07:32:26;5.40;;;4.88;;
16246;SDS011;8231;50.866;7.944;2022-07-23T07:35:15;6.13;;;4.50;;
16246;SDS011;8231;50.866;7.944;2022-07-23T07:37:43;5.25;;;4.75;;
16246;SDS011;8231;50.866;7.944;2022-07-23T07:40:11;6.63;;;4.93;;
16246;SDS011;8231;50.866;7.944;2022-07-23T07:42:45;6.03;;;5.10;;
16246;SDS011;8231;50.866;7.944;2022-07-23T07:45:15;5.22;;;4.80;;
16246;SDS011;8231;50.866;7.944;2022-07-23T07:47:44;5.63;;;4.72;;
16246;SDS011;8231;50.866;7.944;2022-07-23T07:50:12;5.30;;;4.82;;
16246;SDS011;8231;50.866;7.944;2022-07-23T07:52:41;5.82;;;5.22;;
16246;SDS011;8231;50.866;7.944;2022-07-23T07:55:09;5.38;;;4.88;;
16246;SDS011;8231;50.866;7.944;2022-07-23T07:57:38;5.57;;;5.03;;
16246;SDS011;8231;50.866;7.944;2022-07-23T08:00:08;5.30;;;4.80;;
16246;SDS011;8231;50.866;7.944;2022-07-23T08:02:44;4.65;;;3.47;;
16246;SDS011;8231;50.866;7.944;2022-07-23T08:05:18;5.43;;;4.07;;
16246;SDS011;8231;50.866;7.944;2022-07-23T08:07:53;4.63;;;4.22;;
16246;SDS011;8231;50.866;7.944;2022-07-23T08:10:22;3.97;;;3.63;;
16246;SDS011;8231;50.866;7.944;2022-07-23T08:12:51;4.90;;;4.40;;
16246;SDS011;8231;50.866;7.944;2022-07-23T08:15:21;3.65;;;3.22;;
16246;SDS011;8231;50.866;7.944;2022-07-23T08:17:52;3.53;;;3.25;;
16246;SDS011;8231;50.866;7.944;2022-07-23T08:20:21;3.70;;;3.13;;
16246;SDS011;8231;50.866;7.944;2022-07-23T08:22:51;4.60;;;3.33;;
16246;SDS011;8231;50.866;7.944;2022-07-23T08:25:21;3.65;;;3.35;;
16246;SDS011;8231;50.866;7.944;2022-07-23T08:27:50;4.47;;;3.38;;
16246;SDS011;8231;50.866;7.944;2022-07-23T08:30:19;4.03;;;3.08;;
16246;SDS011;8231;50.866;7.944;2022-07-23T08:32:47;3.63;;;3.15;;
16246;SDS011;8231;50.866;7.944;2022-07-23T08:35:20;3.20;;;2.90;;
16246;SDS011;8231;50.866;7.944;2022-07-23T08:37:51;3.97;;;3.35;;
16246;SDS011;8231;50.866;7.944;2022-07-23T08:40:19;3.13;;;2.83;;
16246;SDS011;8231;50.866;7.944;2022-07-23T08:42:48;3.67;;;3.00;;
16246;SDS011;8231;50.866;7.944;2022-07-23T08:45:18;3.03;;;2.72;;
16246;SDS011;8231;50.866;7.944;2022-07-23T08:47:48;3.28;;;2.38;;
16246;SDS011;8231;50.866;7.944;2022-07-23T08:50:20;3.38;;;2.28;;
16246;SDS011;8231;50.866;7.944;2022-07-23T08:52:50;2.50;;;2.30;;
16246;SDS011;8231;50.866;7.944;2022-07-23T08:55:19;2.67;;;2.47;;
16246;SDS011;8231;50.866;7.944;2022-07-23T08:57:49;2.40;;;2.20;;
16246;SDS011;8231;50.866;7.944;2022-07-23T09:00:20;2.80;;;2.60;;
16246;SDS011;8231;50.866;7.944;2022-07-23T09:02:49;2.60;;;2.38;;
16246;SDS011;8231;50.866;7.944;2022-07-23T09:05:18;2.17;;;2.08;;
16246;SDS011;8231;50.866;7.944;2022-07-23T09:08:03;2.28;;;1.88;;
16246;SDS011;8231;50.866;7.944;2022-07-23T09:10:36;1.95;;;1.85;;
16246;SDS011;8231;50.866;7.944;2022-07-23T09:13:24;1.90;;;1.80;;
16246;SDS011;8231;50.866;7.944;2022-07-23T09:16:00;2.40;;;1.80;;
16246;SDS011;8231;50.866;7.944;2022-07-23T09:18:32;2.45;;;1.80;;
16246;SDS011;8231;50.866;7.944;2022-07-23T09:24:01;1.92;;;1.60;;
16246;SDS011;8231;50.866;7.944;2022-07-23T09:26:32;2.00;;;1.80;;
16246;SDS011;8231;50.866;7.944;2022-07-23T09:29:03;2.30;;;2.10;;
16246;SDS011;8231;50.866;7.944;2022-07-23T09:31:46;1.85;;;1.58;;
16246;SDS011;8231;50.866;7.944;2022-07-23T09:34:17;2.22;;;2.03;;
16246;SDS011;8231;50.866;7.944;2022-07-23T09:36:51;2.72;;;1.85;;
16246;SDS011;8231;50.866;7.944;2022-07-23T09:39:24;2.80;;;2.00;;
16246;SDS011;8231;50.866;7.944;2022-07-23T09:41:53;2.10;;;1.90;;
16246;SDS011;8231;50.866;7.944;2022-07-23T09:44:22;2.78;;;1.80;;
16246;SDS011;8231;50.866;7.944;2022-07-23T09:46:57;3.75;;;2.40;;
16246;SDS011;8231;50.866;7.944;2022-07-23T09:49:26;3.20;;;2.90;;
16246;SDS011;8231;50.866;7.944;2022-07-23T09:51:58;3.28;;;2.78;;
16246;SDS011;8231;50.866;7.944;2022-07-23T09:54:29;4.25;;;2.47;;
16246;SDS011;8231;50.866;7.944;2022-07-23T09:57:00;1.98;;;1.77;;
16246;SDS011;8231;50.866;7.944;2022-07-23T09:59:31;2.42;;;2.22;;
16246;SDS011;8231;50.866;7.944;2022-07-23T10:02:01;3.22;;;2.42;;
16246;SDS011;8231;50.866;7.944;2022-07-23T10:04:37;4.40;;;2.00;;
16246;SDS011;8231;50.866;7.944;2022-07-23T10:07:15;3.30;;;2.13;;
16246;SDS011;8231;50.866;7.944;2022-07-23T10:10:07;2.75;;;2.55;;
16246;SDS011;8231;50.866;7.944;2022-07-23T10:12:56;2.85;;;2.13;;
16246;SDS011;8231;50.866;7.944;2022-07-23T10:15:38;2.35;;;2.15;;
16246;SDS011;8231;50.866;7.944;2022-07-23T10:18:09;2.28;;;2.08;;
16246;SDS011;8231;50.866;7.944;2022-07-23T10:20:38;3.22;;;1.95;;
16246;SDS011;8231;50.866;7.944;2022-07-23T10:23:11;3.40;;;2.00;;
16246;SDS011;8231;50.866;7.944;2022-07-23T10:25:46;2.28;;;2.08;;
16246;SDS011;8231;50.866;7.944;2022-07-23T10:28:26;4.32;;;2.20;;
16246;SDS011;8231;50.866;7.944;2022-07-23T10:31:17;2.38;;;2.15;;
16246;SDS011;8231;50.866;7.944;2022-07-23T10:34:25;2.20;;;2.05;;
16246;SDS011;8231;50.866;7.944;2022-07-23T10:37:07;3.83;;;2.35;;
16246;SDS011;8231;50.866;7.944;2022-07-23T10:39:49;2.35;;;2.00;;
16246;SDS011;8231;50.866;7.944;2022-07-23T10:42:37;3.03;;;2.58;;
16246;SDS011;8231;50.866;7.944;2022-07-23T10:45:24;3.92;;;2.97;;
16246;SDS011;8231;50.866;7.944;2022-07-23T10:47:54;2.17;;;2.03;;
16246;SDS011;8231;50.866;7.944;2022-07-23T10:50:23;3.05;;;2.60;;
16246;SDS011;8231;50.866;7.944;2022-07-23T10:53:10;2.40;;;2.20;;
16246;SDS011;8231;50.866;7.944;2022-07-23T10:55:42;2.78;;;1.90;;
16246;SDS011;8231;50.866;7.944;2022-07-23T10:58:19;2.80;;;1.95;;
16246;SDS011;8231;50.866;7.944;2022-07-23T11:00:49;2.60;;;2.10;;
16246;SDS011;8231;50.866;7.944;2022-07-23T11:03:28;2.88;;;1.98;;
16246;SDS011;8231;50.866;7.944;2022-07-23T11:06:03;2.22;;;2.03;;
16246;SDS011;8231;50.866;7.944;2022-07-23T11:08:32;5.13;;;3.10;;
16246;SDS011;8231;50.866;7.944;2022-07-23T11:11:09;2.97;;;2.78;;
16246;SDS011;8231;50.866;7.944;2022-07-23T11:13:42;3.03;;;2.72;;
16246;SDS011;8231;50.866;7.944;2022-07-23T11:16:20;2.47;;;2.15;;
16246;SDS011;8231;50.866;7.944;2022-07-23T11:21:51;2.78;;;2.58;;
16246;SDS011;8231;50.866;7.944;2022-07-23T11:24:20;2.40;;;2.20;;
16246;SDS011;8231;50.866;7.944;2022-07-23T11:26:52;2.50;;;2.30;;
16246;SDS011;8231;50.866;7.944;2022-07-23T11:29:41;2.10;;;1.90;;
16246;SDS011;8231;50.866;7.944;2022-07-23T11:35:22;2.15;;;2.05;;
16246;SDS011;8231;50.866;7.944;2022-07-23T11:37:54;3.70;;;2.63;;
16246;SDS011;8231;50.866;7.944;2022-07-23T11:40:34;3.42;;;2.30;;
16246;SDS011;8231;50.866;7.944;2022-07-23T11:43:05;2.80;;;2.38;;
16246;SDS011;8231;50.866;7.944;2022-07-23T11:45:35;3.15;;;2.50;;
16246;SDS011;8231;50.866;7.944;2022-07-23T11:48:05;2.88;;;2.67;;
16246;SDS011;8231;50.866;7.944;2022-07-23T11:50:35;3.97;;;2.30;;
16246;SDS011;8231;50.866;7.944;2022-07-23T11:53:04;3.88;;;2.70;;
16246;SDS011;8231;50.866;7.944;2022-07-23T11:55:32;2.72;;;2.53;;
16246;SDS011;8231;50.866;7.944;2022-07-23T11:58:00;2.60;;;2.40;;
16246;SDS011;8231;50.866;7.944;2022-07-23T12:00:30;2.40;;;2.20;;
16246;SDS011;8231;50.866;7.944;2022-07-23T12:03:06;2.58;;;2.38;;
16246;SDS011;8231;50.866;7.944;2022-07-23T12:05:35;7.80;;;2.55;;
16246;SDS011;8231;50.866;7.944;2022-07-23T12:08:06;2.85;;;2.55;;
16246;SDS011;8231;50.866;7.944;2022-07-23T12:10:36;3.08;;;2.83;;
16246;SDS011;8231;50.866;7.944;2022-07-23T12:13:06;3.17;;;2.88;;
16246;SDS011;8231;50.866;7.944;2022-07-23T12:15:39;3.58;;;3.28;;
16246;SDS011;8231;50.866;7.944;2022-07-23T12:18:09;3.90;;;2.95;;
16246;SDS011;8231;50.866;7.944;2022-07-23T12:20:39;4.63;;;2.85;;
16246;SDS011;8231;50.866;7.944;2022-07-23T12:23:10;2.67;;;2.47;;
16246;SDS011;8231;50.866;7.944;2022-07-23T12:25:47;3.55;;;2.72;;
16246;SDS011;8231;50.866;7.944;2022-07-23T12:28:16;28.00;;;25.95;;
16246;SDS011;8231;50.866;7.944;2022-07-23T12:30:47;4.28;;;3.17;;
16246;SDS011;8231;50.866;7.944;2022-07-23T12:33:21;3.72;;;2.90;;
16246;SDS011;8231;50.866;7.944;2022-07-23T12:35:50;3.03;;;2.65;;
16246;SDS011;8231;50.866;7.944;2022-07-23T12:38:21;4.25;;;2.33;;
16246;SDS011;8231;50.866;7.944;2022-07-23T12:40:51;3.08;;;2.75;;
16246;SDS011;8231;50.866;7.944;2022-07-23T12:43:22;3.30;;;2.80;;
16246;SDS011;8231;50.866;7.944;2022-07-23T12:45:53;3.45;;;3.20;;
16246;SDS011;8231;50.866;7.944;2022-07-23T12:48:23;4.00;;;3.53;;
16246;SDS011;8231;50.866;7.944;2022-07-23T12:50:54;3.65;;;3.35;;
16246;SDS011;8231;50.866;7.944;2022-07-23T12:53:25;3.88;;;2.70;;
16246;SDS011;8231;50.866;7.944;2022-07-23T12:55:59;3.72;;;3.42;;
16246;SDS011;8231;50.866;7.944;2022-07-23T12:58:42;4.80;;;3.40;;
16246;SDS011;8231;50.866;7.944;2022-07-23T13:01:29;3.60;;;3.30;;
16246;SDS011;8231;50.866;7.944;2022-07-23T13:04:01;3.20;;;3.00;;
16246;SDS011;8231;50.866;7.944;2022-07-23T13:06:39;3.70;;;3.40;;
16246;SDS011;8231;50.866;7.944;2022-07-23T13:09:09;3.13;;;2.92;;
16246;SDS011;8231;50.866;7.944;2022-07-23T13:11:41;4.50;;;3.80;;
16246;SDS011;8231;50.866;7.944;2022-07-23T13:14:10;4.35;;;3.75;;
16246;SDS011;8231;50.866;7.944;2022-07-23T13:16:40;4.50;;;4.10;;
16246;SDS011;8231;50.866;7.944;2022-07-23T13:19:09;4.10;;;3.70;;
16246;SDS011;8231;50.866;7.944;2022-07-23T13:21:38;6.22;;;3.67;;
16246;SDS011;8231;50.866;7.944;2022-07-23T13:24:07;4.30;;;3.25;;
16246;SDS011;8231;50.866;7.944;2022-07-23T13:26:36;3.55;;;3.25;;
16246;SDS011;8231;50.866;7.944;2022-07-23T13:29:05;4.45;;;4.05;;
16246;SDS011;8231;50.866;7.944;2022-07-23T13:31:35;4.13;;;3.75;;
16246;SDS011;8231;50.866;7.944;2022-07-23T13:34:06;4.00;;;3.70;;
16246;SDS011;8231;50.866;7.944;2022-07-23T13:36:34;4.15;;;3.85;;
16246;SDS011;8231;50.866;7.944;2022-07-23T13:39:03;3.83;;;3.40;;
16246;SDS011;8231;50.866;7.944;2022-07-23T13:41:35;4.30;;;3.90;;
16246;SDS011;8231;50.866;7.944;2022-07-23T13:44:04;4.65;;;4.13;;
16246;SDS011;8231;50.866;7.944;2022-07-23T13:46:33;5.07;;;4.57;;
16246;SDS011;8231;50.866;7.944;2022-07-23T13:49:01;4.22;;;3.67;;
16246;SDS011;8231;50.866;7.944;2022-07-23T13:51:33;4.40;;;4.00;;
16246;SDS011;8231;50.866;7.944;2022-07-23T13:54:02;4.72;;;3.75;;
16246;SDS011;8231;50.866;7.944;2022-07-23T13:56:34;4.85;;;3.95;;
16246;SDS011;8231;50.866;7.944;2022-07-23T13:59:03;4.18;;;3.83;;
16246;SDS011;8231;50.866;7.944;2022-07-23T14:01:32;5.15;;;4.13;;
16246;SDS011;8231;50.866;7.944;2022-07-23T14:04:15;5.22;;;4.53;;
16246;SDS011;8231;50.866;7.944;2022-07-23T14:06:45;4.97;;;4.38;;
16246;SDS011;8231;50.866;7.944;2022-07-23T14:09:18;4.30;;;3.97;;
16246;SDS011;8231;50.866;7.944;2022-07-23T14:11:46;4.22;;;3.92;;
16246;SDS011;8231;50.866;7.944;2022-07-23T14:14:15;4.18;;;3.88;;
16246;SDS011;8231;50.866;7.944;2022-07-23T14:16:44;5.20;;;4.07;;
16246;SDS011;8231;50.866;7.944;2022-07-23T14:19:12;4.43;;;4.03;;
16246;SDS011;8231;50.866;7.944;2022-07-23T14:21:40;4.57;;;4.15;;
16246;SDS011;8231;50.866;7.944;2022-07-23T14:24:11;5.78;;;4.38;;
16246;SDS011;8231;50.866;7.944;2022-07-23T14:26:39;7.32;;;4.57;;
16246;SDS011;8231;50.866;7.944;2022-07-23T14:29:08;4.25;;;3.88;;
16246;SDS011;8231;50.866;7.944;2022-07-23T14:31:37;5.40;;;4.78;;
16246;SDS011;8231;50.866;7.944;2022-07-23T14:34:06;4.75;;;4.35;;
16246;SDS011;8231;50.866;7.944;2022-07-23T14:36:34;4.32;;;4.03;;
16246;SDS011;8231;50.866;7.944;2022-07-23T14:39:05;4.50;;;4.10;;
16246;SDS011;8231;50.866;7.944;2022-07-23T14:41:37;5.07;;;4.65;;
16246;SDS011;8231;50.866;7.944;2022-07-23T14:44:06;5.55;;;5.05;;
16246;SDS011;8231;50.866;7.944;2022-07-23T14:46:35;5.15;;;4.65;;
16246;SDS011;8231;50.866;7.944;2022-07-23T14:49:04;5.38;;;4.95;;
16246;SDS011;8231;50.866;7.944;2022-07-23T14:51:33;5.57;;;4.50;;
16246;SDS011;8231;50.866;7.944;2022-07-23T14:54:02;4.45;;;4.05;;
16246;SDS011;8231;50.866;7.944;2022-07-23T14:56:31;5.57;;;4.78;;
16246;SDS011;8231;50.866;7.944;2022-07-23T14:59:01;6.30;;;4.60;;
16246;SDS011;8231;50.866;7.944;2022-07-23T15:01:31;6.47;;;5.80;;
16246;SDS011;8231;50.866;7.944;2022-07-23T15:04:00;7.00;;;4.88;;
16246;SDS011;8231;50.866;7.944;2022-07-23T15:06:48;5.85;;;5.35;;
16246;SDS011;8231;50.866;7.944;2022-07-23T15:09:17;4.90;;;4.50;;
16246;SDS011;8231;50.866;7.944;2022-07-23T15:11:45;4.38;;;4.07;;
16246;SDS011;8231;50.866;7.944;2022-07-23T15:14:15;6.50;;;5.07;;
16246;SDS011;8231;50.866;7.944;2022-07-23T15:16:55;6.07;;;4.93;;
16246;SDS011;8231;50.866;7.944;2022-07-23T15:19:25;5.38;;;4.28;;
16246;SDS011;8231;50.866;7.944;2022-07-23T15:21:56;4.50;;;4.20;;
16246;SDS011;8231;50.866;7.944;2022-07-23T15:24:27;5.38;;;4.88;;
16246;SDS011;8231;50.866;7.944;2022-07-23T15:26:56;5.72;;;5.28;;